Time;durP1;ratioP1;P1;durP2;ratioP2;P2;SDS_P1;SDS_P2;PMS_P1;PMS_P2;Temp;Humidity;BMP_temperature;BMP_pressure;BME280_temperature;BME280_humidity;BME280_pressure;Samples;Min_cycle;Max_cycle;Signal;HPM_P1;HPM_P2
2022/01/15 00:01:35;;;;;;;;;;;;;;;;;;4223249;28;1306;-57
2022/01/15 00:03:55;;;;;;;;;;;;;;;;;;4222969;28;1085;-57
2022/01/15 00:06:15;;;;;;;;;;;;;;;;;;4222957;28;1240;-58
2022/01/15 00:08:35;;;;;;;;;;;;;;;;;;4223025;28;919;-57
2022/01/15 00:10:55;;;;;;;;;;;;;;;;;;4222727;28;1980;-57
2022/01/15 00:13:24;;;;;;;;;;;;;;;;;;4223004;28;942;-57
2022/01/15 00:15:50;;;;;;;;;;;;;;;;;;4222801;28;1108;-57
2022/01/15 00:18:13;;;;;;;;;;;;;;;;;;4222451;28;1101;-57
2022/01/15 00:20:34;;;;;;;;;;;;;;;;;;4222811;28;1104;-58
2022/01/15 00:22:54;;;;;;;;;;;;;;;;;;4222843;28;1165;-57
2022/01/15 00:25:14;;;;;;;;;;;;;;;;;;4223067;28;926;-57
2022/01/15 00:27:35;;;;;;;;;;;;;;;;;;4222764;28;1161;-57
2022/01/15 00:29:55;;;;;;;;;;;;;;;;;;4221649;28;1177;-57
2022/01/15 00:32:16;;;;;;;;;;;;;;;;;;4222850;28;1937;-57
2022/01/15 00:34:36;;;;;;;;;;;;;;;;;;4222671;28;865;-58
2022/01/15 00:36:57;;;;;;;;;;;;;;;;;;4222335;28;973;-57
2022/01/15 00:39:18;;;;;;;;;;;;;;;;;;4222288;28;1293;-57
2022/01/15 00:41:39;;;;;;;;;;;;;;;;;;4222521;28;1051;-57
2022/01/15 00:43:59;;;;;;;;;;;;;;;;;;4222504;28;937;-57
2022/01/15 00:46:20;;;;;;;;;;;;;;;;;;4222754;28;848;-57
2022/01/15 00:48:40;;;;;;;;;;;;;;;;;;4222602;28;1115;-57
2022/01/15 00:51:00;;;;;;;;;;;;;;;;;;4222538;28;1972;-57
2022/01/15 00:53:20;;;;;;;;;;;;;;;;;;4222517;28;946;-57
2022/01/15 00:55:41;;;;;;;;;;;;;;;;;;4222446;28;1089;-57
2022/01/15 00:58:01;;;;;;;;;;;;;;;;;;4222343;28;948;-57
2022/01/15 01:00:22;;;;;;;;;;;;;;;;;;4222204;28;990;-57
2022/01/15 01:02:42;;;;;;;;;;;;;;;;;;4222125;28;1153;-57
2022/01/15 01:05:03;;;;;;;;;;;;;;;;;;4222085;28;971;-57
2022/01/15 01:07:23;;;;;;;;;;;;;;;;;;4222448;28;939;-58
2022/01/15 01:10:00;;;;;;;;;;;;;;;;;;4222106;28;1158;-57
2022/01/15 01:12:29;;;;;;;;;;;;;;;;;;4222018;28;1906;-58
2022/01/15 01:20:09;;;;;;;;;;;;;;;;;;4207051;28;1053;-58
2022/01/15 01:25:20;;;;;;;;;;;;;;;;;;4170547;28;1102;-57
2022/01/15 01:27:48;;;;;;;;;;;;;;;;;;4212645;28;2430;-57
2022/01/15 01:30:14;;;;;;;;;;;;;;;;;;4221956;28;1085;-57
2022/01/15 01:32:48;;;;;;;;;;;;;;;;;;4221622;28;1910;-57
2022/01/15 01:35:13;;;;;;;;;;;;;;;;;;4222069;28;1080;-57
2022/01/15 01:37:35;;;;;;;;;;;;;;;;;;4221512;28;1173;-58
2022/01/15 01:40:14;;;;;;;;;;;;;;;;;;4221644;28;1350;-57
2022/01/15 01:42:41;;;;;;;;;;;;;;;;;;4221710;28;1064;-57
2022/01/15 01:45:04;;;;;;;;;;;;;;;;;;4221713;28;1188;-57
2022/01/15 01:47:36;;;;;;;;;;;;;;;;;;4221769;28;929;-57
2022/01/15 01:49:56;;;;;;;;;;;;;;;;;;4221662;28;1049;-57
2022/01/15 01:52:16;;;;;;;;;;;;;;;;;;4206449;28;1914;-57
2022/01/15 01:54:36;;;;;;;;;;;;;;;;;;4221382;28;970;-57
2022/01/15 01:56:56;;;;;;;;;;;;;;;;;;4221475;28;1179;-57
2022/01/15 01:59:18;;;;;;;;;;;;;;;;;;4220881;28;927;-57
2022/01/15 02:01:44;;;;;;;;;;;;;;;;;;4221795;28;1016;-57
2022/01/15 02:04:05;;;;;;;;;;;;;;;;;;4220615;28;1162;-57
2022/01/15 02:06:25;;;;;;;;;;;;;;;;;;4220145;28;1325;-57
2022/01/15 02:08:45;;;;;;;;;;;;;;;;;;4220936;28;1727;-59
2022/01/15 02:11:06;;;;;;;;;;;;;;;;;;4204272;28;1978;-58
2022/01/15 02:13:26;;;;;;;;;;;;;;;;;;4211226;28;1031;-58
2022/01/15 02:15:46;;;;;;;;;;;;;;;;;;4205551;28;1109;-58
2022/01/15 02:18:07;;;;;;;;;;;;;;;;;;4221055;28;1061;-58
2022/01/15 02:21:00;;;;;;;;;;;;;;;;;;4220498;28;1120;-57
2022/01/15 02:23:33;;;;;;;;;;;;;;;;;;4220823;28;1317;-57
2022/01/15 02:25:53;;;;;;;;;;;;;;;;;;4220777;28;1278;-57
2022/01/15 02:28:13;;;;;;;;;;;;;;;;;;4220693;28;1290;-57
2022/01/15 02:30:34;;;;;;;;;;;;;;;;;;4221387;28;973;-57
2022/01/15 02:32:54;;;;;;;;;;;;;;;;;;4221407;28;1992;-57
2022/01/15 02:35:15;;;;;;;;;;;;;;;;;;4220750;28;1187;-58
2022/01/15 02:37:35;;;;;;;;;;;;;;;;;;4221354;28;960;-58
2022/01/15 02:39:55;;;;;;;;;;;;;;;;;;4221249;28;834;-57
2022/01/15 02:42:15;;;;;;;;;;;;;;;;;;4220996;28;943;-57
2022/01/15 02:44:38;;;;;;;;;;;;;;;;;;4220788;28;1147;-57
2022/01/15 02:49:36;;;;;;;;;;;;;;;;;;4220932;28;1159;-57
2022/01/15 02:51:57;;;;;;;;;;;;;;;;;;4205482;28;1890;-57
2022/01/15 02:54:17;;;;;;;;;;;;;;;;;;4223669;28;979;-57
2022/01/15 02:56:37;;;;;;;;;;;;;;;;;;4224449;28;805;-57
2022/01/15 02:58:57;;;;;;;;;;;;;;;;;;4223699;28;985;-57
2022/01/15 03:01:18;;;;;;;;;;;;;;;;;;4208517;28;1201;-57
2022/01/15 03:03:38;;;;;;;;;;;;;;;;;;4223646;28;1005;-57
2022/01/15 03:05:58;;;;;;;;;;;;;;;;;;4223348;28;977;-57
2022/01/15 03:08:19;;;;;;;;;;;;;;;;;;4223622;28;1256;-57
2022/01/15 03:10:39;;;;;;;;;;;;;;;;;;4223652;28;1175;-57
2022/01/15 03:13:01;;;;;;;;;;;;;;;;;;4208291;28;1949;-58
2022/01/15 03:15:22;;;;;;;;;;;;;;;;;;4223569;28;1012;-57
2022/01/15 03:17:42;;;;;;;;;;;;;;;;;;4208283;28;1172;-57
2022/01/15 03:20:02;;;;;;;;;;;;;;;;;;4223202;28;1042;-57
2022/01/15 03:22:22;;;;;;;;;;;;;;;;;;4223559;28;1004;-57
2022/01/15 03:24:42;;;;;;;;;;;;;;;;;;4223546;28;1010;-57
2022/01/15 03:27:02;;;;;;;;;;;;;;;;;;4223294;28;1390;-57
2022/01/15 03:29:23;;;;;;;;;;;;;;;;;;4223253;28;963;-57
2022/01/15 03:31:43;;;;;;;;;;;;;;;;;;4223142;28;1930;-57
2022/01/15 03:34:03;;;;;;;;;;;;;;;;;;4223628;28;1024;-57
2022/01/15 03:36:23;;;;;;;;;;;;;;;;;;4223125;28;1198;-57
2022/01/15 03:38:43;;;;;;;;;;;;;;;;;;4223318;28;977;-57
2022/01/15 03:41:04;;;;;;;;;;;;;;;;;;4223288;28;1520;-57
2022/01/15 03:43:24;;;;;;;;;;;;;;;;;;4223541;28;1049;-57
2022/01/15 03:45:44;;;;;;;;;;;;;;;;;;4223337;28;1062;-57
2022/01/15 03:48:04;;;;;;;;;;;;;;;;;;4205125;28;966;-57
2022/01/15 03:50:25;;;;;;;;;;;;;;;;;;4222863;28;966;-57
2022/01/15 03:52:45;;;;;;;;;;;;;;;;;;4223110;28;1909;-57
2022/01/15 03:55:06;;;;;;;;;;;;;;;;;;4223517;28;1099;-57
2022/01/15 03:57:26;;;;;;;;;;;;;;;;;;4222879;28;1039;-57
2022/01/15 03:59:47;;;;;;;;;;;;;;;;;;4223063;28;1185;-57
2022/01/15 04:02:07;;;;;;;;;;;;;;;;;;4222832;28;1077;-57
2022/01/15 04:04:27;;;;;;;;;;;;;;;;;;4222800;28;986;-57
2022/01/15 04:06:48;;;;;;;;;;;;;;;;;;4222745;28;1169;-57
2022/01/15 04:09:08;;;;;;;;;;;;;;;;;;4223397;28;931;-57
2022/01/15 04:11:28;;;;;;;;;;;;;;;;;;4222835;28;973;-57
2022/01/15 04:13:49;;;;;;;;;;;;;;;;;;4223109;28;1961;-57
2022/01/15 04:16:09;;;;;;;;;;;;;;;;;;4223110;28;847;-57
2022/01/15 04:18:36;;;;;;;;;;;;;;;;;;4222558;28;1369;-57
2022/01/15 04:20:58;;;;;;;;;;;;;;;;;;4222740;28;1066;-58
2022/01/15 04:23:18;;;;;;;;;;;;;;;;;;4222660;28;1186;-62
2022/01/15 04:25:39;;;;;;;;;;;;;;;;;;4222698;28;1152;-58
2022/01/15 04:28:01;;;;;;;;;;;;;;;;;;4223033;28;948;-57
2022/01/15 04:30:27;;;;;;;;;;;;;;;;;;4222770;28;1205;-57
2022/01/15 04:32:47;;;;;;;;;;;;;;;;;;4222538;28;1984;-57
2022/01/15 04:35:08;;;;;;;;;;;;;;;;;;4222892;28;918;-57
2022/01/15 04:37:35;;;;;;;;;;;;;;;;;;4222826;28;991;-57
2022/01/15 04:39:56;;;;;;;;;;;;;;;;;;4222648;28;1169;-57
2022/01/15 04:42:20;;;;;;;;;;;;;;;;;;4222657;28;1103;-57
2022/01/15 04:44:41;;;;;;;;;;;;;;;;;;4222731;28;1005;-57
2022/01/15 04:47:03;;;;;;;;;;;;;;;;;;4222352;28;1175;-57
2022/01/15 04:49:23;;;;;;;;;;;;;;;;;;4222546;28;946;-57
2022/01/15 04:51:44;;;;;;;;;;;;;;;;;;4222453;28;1149;-57
2022/01/15 04:54:04;;;;;;;;;;;;;;;;;;4222216;28;1982;-57
2022/01/15 04:56:24;;;;;;;;;;;;;;;;;;4222224;28;1410;-57
2022/01/15 04:58:44;;;;;;;;;;;;;;;;;;4222418;28;926;-57
2022/01/15 05:01:05;;;;;;;;;;;;;;;;;;4207074;28;1029;-57
2022/01/15 05:03:25;;;;;;;;;;;;;;;;;;4222741;28;1133;-57
2022/01/15 05:05:45;;;;;;;;;;;;;;;;;;4222092;28;1172;-57
2022/01/15 05:08:10;;;;;;;;;;;;;;;;;;4222351;28;1172;-57
2022/01/15 05:10:30;;;;;;;;;;;;;;;;;;4222429;28;834;-57
2022/01/15 05:12:51;;;;;;;;;;;;;;;;;;4221935;28;1886;-58
2022/01/15 05:15:11;;;;;;;;;;;;;;;;;;4221726;28;1184;-57
2022/01/15 05:17:31;;;;;;;;;;;;;;;;;;4222355;28;976;-57
2022/01/15 05:19:51;;;;;;;;;;;;;;;;;;4222141;28;1259;-58
2022/01/15 05:22:12;;;;;;;;;;;;;;;;;;4222314;28;1283;-57
2022/01/15 05:24:33;;;;;;;;;;;;;;;;;;4222259;28;781;-58
2022/01/15 05:26:53;;;;;;;;;;;;;;;;;;4221867;28;1183;-57
2022/01/15 05:29:13;;;;;;;;;;;;;;;;;;4221835;28;1004;-57
2022/01/15 05:31:34;;;;;;;;;;;;;;;;;;4221848;28;1013;-57
2022/01/15 05:33:54;;;;;;;;;;;;;;;;;;4221969;28;1909;-57
2022/01/15 05:36:14;;;;;;;;;;;;;;;;;;4221978;28;1027;-57
2022/01/15 05:38:34;;;;;;;;;;;;;;;;;;4222053;28;1090;-58
2022/01/15 05:40:55;;;;;;;;;;;;;;;;;;4221711;28;1073;-57
2022/01/15 05:43:15;;;;;;;;;;;;;;;;;;4221871;28;1210;-57
2022/01/15 05:45:35;;;;;;;;;;;;;;;;;;4221533;28;928;-57
2022/01/15 05:47:55;;;;;;;;;;;;;;;;;;4206386;28;1008;-57
2022/01/15 05:50:16;;;;;;;;;;;;;;;;;;4221787;28;969;-57
2022/01/15 05:52:36;;;;;;;;;;;;;;;;;;4221804;28;1914;-57
2022/01/15 05:54:56;;;;;;;;;;;;;;;;;;4221475;28;1004;-57
2022/01/15 05:57:16;;;;;;;;;;;;;;;;;;4221824;28;957;-57
2022/01/15 05:59:37;;;;;;;;;;;;;;;;;;4221402;28;1076;-57
2022/01/15 06:01:57;;;;;;;;;;;;;;;;;;4221822;28;858;-57
2022/01/15 06:04:17;;;;;;;;;;;;;;;;;;4221612;28;1075;-57
2022/01/15 06:06:37;;;;;;;;;;;;;;;;;;4221358;28;1092;-57
2022/01/15 06:08:57;;;;;;;;;;;;;;;;;;4221200;28;1367;-57
2022/01/15 06:11:17;;;;;;;;;;;;;;;;;;4206635;28;910;-57
2022/01/15 06:13:37;;;;;;;;;;;;;;;;;;4221071;28;1906;-57
2022/01/15 06:15:58;;;;;;;;;;;;;;;;;;4221655;28;1114;-57
2022/01/15 06:18:18;;;;;;;;;;;;;;;;;;4221711;28;1324;-57
2022/01/15 06:20:38;;;;;;;;;;;;;;;;;;4217454;28;998;-58
2022/01/15 06:22:58;;;;;;;;;;;;;;;;;;4221185;28;1208;-58
2022/01/15 06:25:19;;;;;;;;;;;;;;;;;;4220933;28;1189;-57
2022/01/15 06:27:39;;;;;;;;;;;;;;;;;;4220651;28;981;-57
2022/01/15 06:29:59;;;;;;;;;;;;;;;;;;4223988;28;1343;-57
2022/01/15 06:32:19;;;;;;;;;;;;;;;;;;4223895;28;1029;-57
2022/01/15 06:34:39;;;;;;;;;;;;;;;;;;4223472;28;1905;-58
2022/01/15 06:37:00;;;;;;;;;;;;;;;;;;4224158;28;860;-57
2022/01/15 06:39:20;;;;;;;;;;;;;;;;;;4224027;28;817;-57
2022/01/15 06:41:40;;;;;;;;;;;;;;;;;;4223039;28;1012;-57
2022/01/15 06:44:01;;;;;;;;;;;;;;;;;;4223554;28;1083;-58
2022/01/15 06:46:21;;;;;;;;;;;;;;;;;;4223649;28;1172;-57
2022/01/15 06:48:41;;;;;;;;;;;;;;;;;;4223124;28;1178;-57
2022/01/15 06:51:02;;;;;;;;;;;;;;;;;;4223754;28;967;-57
2022/01/15 06:53:22;;;;;;;;;;;;;;;;;;4221063;28;2880;-57
2022/01/15 06:55:43;;;;;;;;;;;;;;;;;;4223084;28;1690;-57
2022/01/15 06:58:03;;;;;;;;;;;;;;;;;;4223347;28;2225;-57
2022/01/15 07:00:25;;;;;;;;;;;;;;;;;;4220887;28;1441;-57
2022/01/15 07:02:45;;;;;;;;;;;;;;;;;;4221112;28;1502;-58
2022/01/15 07:05:05;;;;;;;;;;;;;;;;;;4220241;28;2392;-57
2022/01/15 07:07:26;;;;;;;;;;;;;;;;;;4222956;28;1517;-58
2022/01/15 07:09:46;;;;;;;;;;;;;;;;;;4223366;28;1767;-57
2022/01/15 07:12:07;;;;;;;;;;;;;;;;;;4221493;28;1794;-60
2022/01/15 07:14:27;;;;;;;;;;;;;;;;;;4221837;28;1974;-58
2022/01/15 07:16:47;;;;;;;;;;;;;;;;;;4218406;28;1775;-57
2022/01/15 07:19:08;;;;;;;;;;;;;;;;;;4222143;28;1898;-58
2022/01/15 07:21:28;;;;;;;;;;;;;;;;;;4223233;28;1959;-58
2022/01/15 07:23:49;;;;;;;;;;;;;;;;;;4221959;28;1571;-57
2022/01/15 07:26:10;;;;;;;;;;;;;;;;;;4189264;28;2201;-58
2022/01/15 07:28:31;;;;;;;;;;;;;;;;;;4222182;28;1977;-59
2022/01/15 07:30:51;;;;;;;;;;;;;;;;;;4222156;28;1436;-57
2022/01/15 07:33:12;;;;;;;;;;;;;;;;;;4223590;28;1984;-57
2022/01/15 07:35:32;;;;;;;;;;;;;;;;;;4223035;28;1249;-58
2022/01/15 07:37:52;;;;;;;;;;;;;;;;;;4223349;28;1075;-57
2022/01/15 07:40:13;;;;;;;;;;;;;;;;;;4223294;28;843;-57
2022/01/15 07:42:36;;;;;;;;;;;;;;;;;;4223182;28;1099;-58
2022/01/15 07:44:56;;;;;;;;;;;;;;;;;;4223640;28;987;-57
2022/01/15 07:47:16;;;;;;;;;;;;;;;;;;4223637;28;1048;-57
2022/01/15 07:49:37;;;;;;;;;;;;;;;;;;4223194;28;993;-57
2022/01/15 07:51:57;;;;;;;;;;;;;;;;;;4223649;28;1192;-57
2022/01/15 07:54:17;;;;;;;;;;;;;;;;;;4223247;28;1906;-57
2022/01/15 07:56:38;;;;;;;;;;;;;;;;;;4222961;28;1017;-56
2022/01/15 07:58:58;;;;;;;;;;;;;;;;;;4223256;28;1085;-56
2022/01/15 08:01:18;;;;;;;;;;;;;;;;;;4223165;28;1161;-56
2022/01/15 08:03:38;;;;;;;;;;;;;;;;;;4222993;28;1103;-56
2022/01/15 08:05:59;;;;;;;;;;;;;;;;;;4223431;28;1076;-56
2022/01/15 08:08:19;;;;;;;;;;;;;;;;;;4223009;28;1167;-57
2022/01/15 08:10:39;;;;;;;;;;;;;;;;;;4223083;28;1007;-57
2022/01/15 08:13:00;;;;;;;;;;;;;;;;;;4205138;28;964;-57
2022/01/15 08:15:20;;;;;;;;;;;;;;;;;;4222806;28;1976;-57
2022/01/15 08:17:41;;;;;;;;;;;;;;;;;;4222644;28;1105;-57
2022/01/15 08:20:01;;;;;;;;;;;;;;;;;;4191296;28;1295;-57
2022/01/15 08:22:21;;;;;;;;;;;;;;;;;;4206359;28;1171;-56
2022/01/15 08:24:41;;;;;;;;;;;;;;;;;;4205834;28;1044;-57
2022/01/15 08:27:02;;;;;;;;;;;;;;;;;;4205868;28;922;-57
2022/01/15 08:29:22;;;;;;;;;;;;;;;;;;4206093;28;1206;-57
2022/01/15 08:31:42;;;;;;;;;;;;;;;;;;4190846;28;1232;-57
2022/01/15 08:34:03;;;;;;;;;;;;;;;;;;4205372;28;1910;-57
2022/01/15 08:36:23;;;;;;;;;;;;;;;;;;4205303;28;1712;-56
2022/01/15 08:38:43;;;;;;;;;;;;;;;;;;4204852;28;1900;-56
2022/01/15 08:41:04;;;;;;;;;;;;;;;;;;4204013;28;1470;-56
2022/01/15 08:43:24;;;;;;;;;;;;;;;;;;4203184;28;1795;-58
2022/01/15 08:45:46;;;;;;;;;;;;;;;;;;4203921;28;1464;-57
2022/01/15 08:48:07;;;;;;;;;;;;;;;;;;4199671;28;2145;-56
2022/01/15 08:50:27;;;;;;;;;;;;;;;;;;4197271;28;2432;-56
2022/01/15 08:52:47;;;;;;;;;;;;;;;;;;4203951;28;1509;-56
2022/01/15 08:55:08;;;;;;;;;;;;;;;;;;4203574;28;1909;-56
2022/01/15 08:57:28;;;;;;;;;;;;;;;;;;4203637;28;1387;-56
2022/01/15 08:59:48;;;;;;;;;;;;;;;;;;4199816;28;1727;-56
2022/01/15 09:02:08;;;;;;;;;;;;;;;;;;4189358;28;1029;-56
2022/01/15 09:04:28;;;;;;;;;;;;;;;;;;4188903;28;1400;-56
2022/01/15 09:06:49;;;;;;;;;;;;;;;;;;4189084;28;1094;-56
2022/01/15 09:09:09;;;;;;;;;;;;;;;;;;4189289;28;1635;-56
2022/01/15 09:11:29;;;;;;;;;;;;;;;;;;4204719;28;1511;-56
2022/01/15 09:13:50;;;;;;;;;;;;;;;;;;4204634;28;1910;-56
2022/01/15 09:16:10;;;;;;;;;;;;;;;;;;4205178;28;1563;-56
2022/01/15 09:18:30;;;;;;;;;;;;;;;;;;4209866;28;1321;-58
2022/01/15 09:20:51;;;;;;;;;;;;;;;;;;4221801;28;1111;-58
2022/01/15 09:23:12;;;;;;;;;;;;;;;;;;4222066;28;1147;-58
2022/01/15 09:25:32;;;;;;;;;;;;;;;;;;4221841;28;970;-58
2022/01/15 09:30:31;;;;;;;;;;;;;;;;;;4222109;28;989;-58
2022/01/15 09:32:51;;;;;;;;;;;;;;;;;;4217834;28;1776;-58
2022/01/15 09:35:12;;;;;;;;;;;;;;;;;;4205929;28;1902;-58
2022/01/15 09:37:32;;;;;;;;;;;;;;;;;;4221127;28;1275;-57
2022/01/15 09:39:52;;;;;;;;;;;;;;;;;;4209397;28;2350;-58
2022/01/15 09:42:13;;;;;;;;;;;;;;;;;;4221165;28;1716;-58
2022/01/15 09:44:33;;;;;;;;;;;;;;;;;;4221678;28;995;-58
2022/01/15 09:46:53;;;;;;;;;;;;;;;;;;4206192;28;1074;-57
2022/01/15 09:49:14;;;;;;;;;;;;;;;;;;4205560;28;1213;-58
2022/01/15 09:51:34;;;;;;;;;;;;;;;;;;4220471;28;1571;-58
2022/01/15 09:53:54;;;;;;;;;;;;;;;;;;4221941;28;948;-58
2022/01/15 09:56:15;;;;;;;;;;;;;;;;;;4221261;28;1060;-58
2022/01/15 09:58:35;;;;;;;;;;;;;;;;;;4206321;28;1002;-57
2022/01/15 10:00:56;;;;;;;;;;;;;;;;;;4221165;28;942;-58
2022/01/15 10:03:16;;;;;;;;;;;;;;;;;;4220872;28;1325;-58
2022/01/15 10:05:37;;;;;;;;;;;;;;;;;;4220673;28;1083;-57
2022/01/15 10:07:57;;;;;;;;;;;;;;;;;;4221532;28;1012;-58
2022/01/15 10:10:18;;;;;;;;;;;;;;;;;;4221143;28;934;-58
2022/01/15 10:12:41;;;;;;;;;;;;;;;;;;4221540;28;1406;-58
2022/01/15 10:15:02;;;;;;;;;;;;;;;;;;4220522;28;1921;-58
2022/01/15 10:17:22;;;;;;;;;;;;;;;;;;4221214;28;1306;-58
2022/01/15 10:19:43;;;;;;;;;;;;;;;;;;4220757;28;1105;-57
2022/01/15 10:22:03;;;;;;;;;;;;;;;;;;4221560;28;1190;-58
2022/01/15 10:24:23;;;;;;;;;;;;;;;;;;4220657;28;1265;-58
2022/01/15 10:26:43;;;;;;;;;;;;;;;;;;4221083;28;1227;-58
2022/01/15 10:29:04;;;;;;;;;;;;;;;;;;4204138;28;1068;-58
2022/01/15 10:31:24;;;;;;;;;;;;;;;;;;4204301;28;1209;-58
2022/01/15 10:33:44;;;;;;;;;;;;;;;;;;4217493;28;1155;-57
2022/01/15 10:36:05;;;;;;;;;;;;;;;;;;4220871;28;1969;-57
2022/01/15 10:38:25;;;;;;;;;;;;;;;;;;4220579;28;1140;-57
2022/01/15 10:40:45;;;;;;;;;;;;;;;;;;4221067;28;1095;-57
2022/01/15 10:43:06;;;;;;;;;;;;;;;;;;4220884;28;1008;-57
2022/01/15 10:45:26;;;;;;;;;;;;;;;;;;4221278;28;1116;-58
2022/01/15 10:47:48;;;;;;;;;;;;;;;;;;4220917;28;1097;-58
2022/01/15 10:50:09;;;;;;;;;;;;;;;;;;4221129;28;1016;-57
2022/01/15 10:52:30;;;;;;;;;;;;;;;;;;4220769;28;1145;-58
2022/01/15 10:54:51;;;;;;;;;;;;;;;;;;4219853;28;1984;-58
2022/01/15 10:57:11;;;;;;;;;;;;;;;;;;4220557;28;1354;-58
2022/01/15 10:59:31;;;;;;;;;;;;;;;;;;4220550;28;1564;-57
2022/01/15 11:01:52;;;;;;;;;;;;;;;;;;4220590;28;1067;-58
2022/01/15 11:04:12;;;;;;;;;;;;;;;;;;4203631;28;958;-58
2022/01/15 11:06:33;;;;;;;;;;;;;;;;;;4204179;28;1264;-57
2022/01/15 11:08:53;;;;;;;;;;;;;;;;;;4203857;28;1362;-57
2022/01/15 11:11:14;;;;;;;;;;;;;;;;;;4204016;28;939;-57
2022/01/15 11:13:35;;;;;;;;;;;;;;;;;;4204430;28;1019;-57
2022/01/15 11:15:56;;;;;;;;;;;;;;;;;;4207063;28;1906;-57
2022/01/15 11:18:17;;;;;;;;;;;;;;;;;;4216197;28;1367;-57
2022/01/15 11:20:37;;;;;;;;;;;;;;;;;;4223454;28;1293;-58
2022/01/15 11:22:58;;;;;;;;;;;;;;;;;;4223631;28;1305;-57
2022/01/15 11:25:18;;;;;;;;;;;;;;;;;;4222369;28;1124;-57
2022/01/15 11:27:38;;;;;;;;;;;;;;;;;;4222974;28;1787;-57
2022/01/15 11:29:59;;;;;;;;;;;;;;;;;;4206330;28;1057;-57
2022/01/15 11:32:19;;;;;;;;;;;;;;;;;;4207740;28;1288;-57
2022/01/15 11:34:41;;;;;;;;;;;;;;;;;;4222784;28;1910;-58
2022/01/15 11:37:01;;;;;;;;;;;;;;;;;;4223564;28;994;-58
2022/01/15 11:39:21;;;;;;;;;;;;;;;;;;4223023;28;1059;-58
2022/01/15 11:41:42;;;;;;;;;;;;;;;;;;4223037;28;1294;-58
2022/01/15 11:44:02;;;;;;;;;;;;;;;;;;4223262;28;856;-57
2022/01/15 11:46:22;;;;;;;;;;;;;;;;;;4223204;28;1134;-57
2022/01/15 11:48:43;;;;;;;;;;;;;;;;;;4223135;28;1057;-58
2022/01/15 11:51:03;;;;;;;;;;;;;;;;;;4223053;28;1004;-57
2022/01/15 11:53:23;;;;;;;;;;;;;;;;;;4222871;28;892;-57
2022/01/15 11:55:43;;;;;;;;;;;;;;;;;;4222835;28;1905;-58
2022/01/15 11:58:04;;;;;;;;;;;;;;;;;;4222844;28;1301;-58
2022/01/15 12:00:25;;;;;;;;;;;;;;;;;;4223034;28;1166;-57
2022/01/15 12:02:46;;;;;;;;;;;;;;;;;;4223046;28;1212;-58
2022/01/15 12:05:06;;;;;;;;;;;;;;;;;;4223030;28;1077;-58
2022/01/15 12:07:26;;;;;;;;;;;;;;;;;;4223011;28;1012;-57
2022/01/15 12:09:47;;;;;;;;;;;;;;;;;;4222722;28;953;-57
2022/01/15 12:12:07;;;;;;;;;;;;;;;;;;4223083;28;1225;-57
2022/01/15 12:14:27;;;;;;;;;;;;;;;;;;4223018;28;1115;-57
2022/01/15 12:16:48;;;;;;;;;;;;;;;;;;4222925;28;1906;-57
2022/01/15 12:19:09;;;;;;;;;;;;;;;;;;4222176;28;1449;-57
2022/01/15 12:21:29;;;;;;;;;;;;;;;;;;4221886;28;1761;-58
2022/01/15 12:23:50;;;;;;;;;;;;;;;;;;4220584;28;1979;-58
2022/01/15 12:26:11;;;;;;;;;;;;;;;;;;4221084;28;931;-58
2022/01/15 12:28:31;;;;;;;;;;;;;;;;;;4222341;28;1484;-57
2022/01/15 12:30:53;;;;;;;;;;;;;;;;;;4222684;28;840;-58
2022/01/15 12:33:13;;;;;;;;;;;;;;;;;;4222670;28;1114;-58
2022/01/15 12:35:33;;;;;;;;;;;;;;;;;;4222062;28;1980;-58
2022/01/15 12:37:53;;;;;;;;;;;;;;;;;;4222743;28;1196;-58
2022/01/15 12:40:14;;;;;;;;;;;;;;;;;;4222227;28;947;-58
2022/01/15 12:42:34;;;;;;;;;;;;;;;;;;4222068;28;935;-57
2022/01/15 12:44:55;;;;;;;;;;;;;;;;;;4222540;28;1321;-57
2022/01/15 12:47:16;;;;;;;;;;;;;;;;;;4221766;28;1003;-58
2022/01/15 12:49:36;;;;;;;;;;;;;;;;;;4222369;28;944;-58
2022/01/15 12:51:57;;;;;;;;;;;;;;;;;;4222006;28;1145;-57
2022/01/15 12:54:18;;;;;;;;;;;;;;;;;;4220986;28;1181;-57
2022/01/15 12:56:38;;;;;;;;;;;;;;;;;;4219795;28;1913;-58
2022/01/15 12:58:58;;;;;;;;;;;;;;;;;;4221866;28;967;-58
2022/01/15 13:01:19;;;;;;;;;;;;;;;;;;4222291;28;861;-58
2022/01/15 13:03:39;;;;;;;;;;;;;;;;;;4221021;28;1291;-58
2022/01/15 13:06:00;;;;;;;;;;;;;;;;;;4221691;28;978;-58
2022/01/15 13:08:21;;;;;;;;;;;;;;;;;;4222164;28;1037;-58
2022/01/15 13:10:49;;;;;;;;;;;;;;;;;;4222117;28;1012;-58
2022/01/15 13:13:10;;;;;;;;;;;;;;;;;;4222203;28;862;-57
2022/01/15 13:15:30;;;;;;;;;;;;;;;;;;4221954;28;2005;-58
2022/01/15 13:17:50;;;;;;;;;;;;;;;;;;4220855;28;1427;-58
2022/01/15 13:20:12;;;;;;;;;;;;;;;;;;4216124;28;1224;-58
2022/01/15 13:22:33;;;;;;;;;;;;;;;;;;4221353;28;1096;-58
2022/01/15 13:24:53;;;;;;;;;;;;;;;;;;4221616;28;1141;-58
2022/01/15 13:27:14;;;;;;;;;;;;;;;;;;4221839;28;1751;-58
2022/01/15 13:29:34;;;;;;;;;;;;;;;;;;4221426;28;1255;-58
2022/01/15 13:31:54;;;;;;;;;;;;;;;;;;4221371;28;1043;-58
2022/01/15 13:34:15;;;;;;;;;;;;;;;;;;4218912;28;1222;-58
2022/01/15 13:36:35;;;;;;;;;;;;;;;;;;4221132;28;1905;-58
2022/01/15 13:38:55;;;;;;;;;;;;;;;;;;4221653;28;1184;-58
2022/01/15 13:41:16;;;;;;;;;;;;;;;;;;4221372;28;1002;-58
2022/01/15 13:43:36;;;;;;;;;;;;;;;;;;4220812;28;1457;-58
2022/01/15 13:45:57;;;;;;;;;;;;;;;;;;4206389;28;1200;-58
2022/01/15 13:48:17;;;;;;;;;;;;;;;;;;4221194;28;1154;-58
2022/01/15 13:53:16;;;;;;;;;;;;;;;;;;4221240;28;1246;-58
2022/01/15 13:55:36;;;;;;;;;;;;;;;;;;4221426;28;1910;-59
2022/01/15 13:57:57;;;;;;;;;;;;;;;;;;4221030;28;955;-58
2022/01/15 14:00:17;;;;;;;;;;;;;;;;;;4220899;28;990;-58
2022/01/15 14:02:37;;;;;;;;;;;;;;;;;;4221247;28;1648;-58
2022/01/15 14:04:58;;;;;;;;;;;;;;;;;;4220446;28;1184;-58
2022/01/15 14:07:18;;;;;;;;;;;;;;;;;;4221273;28;1000;-58
2022/01/15 14:09:38;;;;;;;;;;;;;;;;;;4220890;28;1068;-58
2022/01/15 14:11:58;;;;;;;;;;;;;;;;;;4221099;28;935;-57
2022/01/15 14:14:18;;;;;;;;;;;;;;;;;;4220822;28;1320;-58
2022/01/15 14:16:39;;;;;;;;;;;;;;;;;;4221049;28;1989;-57
2022/01/15 14:21:42;;;;;;;;;;;;;;;;;;4220258;28;944;-58
2022/01/15 14:24:02;;;;;;;;;;;;;;;;;;4220469;28;1282;-57
2022/01/15 14:26:23;;;;;;;;;;;;;;;;;;4220312;28;1179;-58
2022/01/15 14:28:43;;;;;;;;;;;;;;;;;;4220914;28;1230;-58
2022/01/15 14:31:03;;;;;;;;;;;;;;;;;;4221221;28;1027;-58
2022/01/15 14:33:23;;;;;;;;;;;;;;;;;;4220829;28;1150;-58
2022/01/15 14:35:45;;;;;;;;;;;;;;;;;;4220643;28;1000;-58
2022/01/15 14:38:05;;;;;;;;;;;;;;;;;;4221332;28;923;-58
2022/01/15 14:40:26;;;;;;;;;;;;;;;;;;4220354;28;1202;-58
2022/01/15 14:42:46;;;;;;;;;;;;;;;;;;4220731;28;1392;-58
2022/01/15 14:45:06;;;;;;;;;;;;;;;;;;4220992;28;1084;-58
2022/01/15 14:47:27;;;;;;;;;;;;;;;;;;4220809;28;1117;-57
2022/01/15 14:49:47;;;;;;;;;;;;;;;;;;4222436;28;1355;-58
2022/01/15 14:52:07;;;;;;;;;;;;;;;;;;4224033;28;834;-57
2022/01/15 14:54:29;;;;;;;;;;;;;;;;;;4223265;28;1364;-57
2022/01/15 14:56:49;;;;;;;;;;;;;;;;;;4223698;28;1905;-58
2022/01/15 14:59:09;;;;;;;;;;;;;;;;;;4223170;28;1359;-58
2022/01/15 15:01:30;;;;;;;;;;;;;;;;;;4223893;28;1231;-58
2022/01/15 15:03:51;;;;;;;;;;;;;;;;;;4223032;28;1434;-58
2022/01/15 15:06:11;;;;;;;;;;;;;;;;;;4223557;28;981;-58
2022/01/15 15:08:31;;;;;;;;;;;;;;;;;;4223377;28;1106;-58
2022/01/15 15:10:54;;;;;;;;;;;;;;;;;;4220489;28;1996;-58
2022/01/15 15:13:14;;;;;;;;;;;;;;;;;;4207694;28;996;-59
2022/01/15 15:15:34;;;;;;;;;;;;;;;;;;4206602;28;1192;-60
2022/01/15 15:17:54;;;;;;;;;;;;;;;;;;4213682;28;1976;-60
2022/01/15 15:20:15;;;;;;;;;;;;;;;;;;4223568;28;1218;-61
2022/01/15 15:22:36;;;;;;;;;;;;;;;;;;4223029;28;962;-60
2022/01/15 15:24:56;;;;;;;;;;;;;;;;;;4223604;28;920;-60
2022/01/15 15:27:17;;;;;;;;;;;;;;;;;;4223194;28;1223;-60
2022/01/15 15:29:37;;;;;;;;;;;;;;;;;;4223106;28;1161;-61
2022/01/15 15:31:58;;;;;;;;;;;;;;;;;;4223428;28;1006;-61
2022/01/15 15:34:18;;;;;;;;;;;;;;;;;;4206646;28;1046;-62
2022/01/15 15:36:38;;;;;;;;;;;;;;;;;;4206526;28;1934;-60
2022/01/15 15:39:01;;;;;;;;;;;;;;;;;;4206262;28;1144;-61
2022/01/15 15:41:22;;;;;;;;;;;;;;;;;;4206656;28;1096;-60
2022/01/15 15:43:42;;;;;;;;;;;;;;;;;;4218872;28;949;-61
2022/01/15 15:46:02;;;;;;;;;;;;;;;;;;4223433;28;1291;-60
2022/01/15 15:48:22;;;;;;;;;;;;;;;;;;4221391;28;1569;-56
2022/01/15 15:50:42;;;;;;;;;;;;;;;;;;4215482;28;981;-56
2022/01/15 15:53:03;;;;;;;;;;;;;;;;;;4206012;28;1114;-56
2022/01/15 15:55:23;;;;;;;;;;;;;;;;;;4205942;28;1459;-56
2022/01/15 15:57:44;;;;;;;;;;;;;;;;;;4206140;28;1909;-56
2022/01/15 16:00:04;;;;;;;;;;;;;;;;;;4212229;28;2233;-56
2022/01/15 16:02:24;;;;;;;;;;;;;;;;;;4210409;28;1082;-57
2022/01/15 16:04:44;;;;;;;;;;;;;;;;;;4222647;28;1386;-57
2022/01/15 16:07:04;;;;;;;;;;;;;;;;;;4222792;28;1543;-56
2022/01/15 16:09:25;;;;;;;;;;;;;;;;;;4219028;28;2651;-56
2022/01/15 16:11:46;;;;;;;;;;;;;;;;;;4213751;28;1049;-57
2022/01/15 16:14:08;;;;;;;;;;;;;;;;;;4215164;28;969;-56
2022/01/15 16:16:29;;;;;;;;;;;;;;;;;;4222123;28;1887;-54
2022/01/15 16:18:49;;;;;;;;;;;;;;;;;;4220917;28;1706;-55
2022/01/15 16:21:09;;;;;;;;;;;;;;;;;;4211068;28;2116;-54
2022/01/15 16:23:30;;;;;;;;;;;;;;;;;;4206039;28;1146;-55
2022/01/15 16:25:50;;;;;;;;;;;;;;;;;;4220933;28;998;-54
2022/01/15 16:28:10;;;;;;;;;;;;;;;;;;4222844;28;1503;-54
2022/01/15 16:30:31;;;;;;;;;;;;;;;;;;4222914;28;1253;-54
2022/01/15 16:32:51;;;;;;;;;;;;;;;;;;4222165;28;1216;-54
2022/01/15 16:35:11;;;;;;;;;;;;;;;;;;4222875;28;987;-54
2022/01/15 16:37:32;;;;;;;;;;;;;;;;;;4220321;28;1980;-54
2022/01/15 16:39:52;;;;;;;;;;;;;;;;;;4222738;28;1204;-55